sensor_id;sensor_type;location;lat;lon;timestamp;pressure;altitude;pressure_sealevel;temperature;humidity
69909;BME280;57190;47.918;8.112;2022-07-29T00:00:14;90843.03;;;16.16;67.53
69909;BME280;57190;47.918;8.112;2022-07-29T00:02:40;90844.84;;;16.21;68.01
69909;BME280;57190;47.918;8.112;2022-07-29T00:05:06;90839.34;;;16.26;68.02
69909;BME280;57190;47.918;8.112;2022-07-29T00:07:33;90832.84;;;16.27;68.12
69909;BME280;57190;47.918;8.112;2022-07-29T00:09:58;90830.56;;;16.21;68.01
69909;BME280;57190;47.918;8.112;2022-07-29T00:12:25;90827.28;;;16.24;68.37
69909;BME280;57190;47.918;8.112;2022-07-29T00:14:51;90829.25;;;16.32;68.38
69909;BME280;57190;47.918;8.112;2022-07-29T00:17:17;90831.53;;;16.39;68.50
69909;BME280;57190;47.918;8.112;2022-07-29T00:19:42;90835.22;;;16.43;67.93
69909;BME280;57190;47.918;8.112;2022-07-29T00:22:08;90832.69;;;16.46;68.18
69909;BME280;57190;47.918;8.112;2022-07-29T00:24:33;90821.66;;;16.48;68.30
69909;BME280;57190;47.918;8.112;2022-07-29T00:26:59;90824.16;;;16.44;68.20
69909;BME280;57190;47.918;8.112;2022-07-29T00:29:24;90824.44;;;16.43;68.24
69909;BME280;57190;47.918;8.112;2022-07-29T00:31:50;90823.34;;;16.44;68.61
69909;BME280;57190;47.918;8.112;2022-07-29T00:34:16;90823.97;;;16.41;68.93
69909;BME280;57190;47.918;8.112;2022-07-29T00:37:01;90827.56;;;16.36;68.40
69909;BME280;57190;47.918;8.112;2022-07-29T00:39:26;90831.25;;;16.26;68.87
69909;BME280;57190;47.918;8.112;2022-07-29T00:41:52;90823.91;;;16.18;69.13
69909;BME280;57190;47.918;8.112;2022-07-29T00:44:17;90822.41;;;16.12;69.21
69909;BME280;57190;47.918;8.112;2022-07-29T00:46:43;90822.94;;;16.00;69.79
69909;BME280;57190;47.918;8.112;2022-07-29T00:49:08;90823.53;;;15.97;70.05
69909;BME280;57190;47.918;8.112;2022-07-29T00:51:36;90817.97;;;15.93;69.92
69909;BME280;57190;47.918;8.112;2022-07-29T00:54:03;90808.78;;;15.94;70.26
69909;BME280;57190;47.918;8.112;2022-07-29T00:56:30;90817.69;;;15.95;70.55
69909;BME280;57190;47.918;8.112;2022-07-29T00:58:57;90812.56;;;15.93;70.53
69909;BME280;57190;47.918;8.112;2022-07-29T01:01:23;90807.81;;;15.90;70.31
69909;BME280;57190;47.918;8.112;2022-07-29T01:03:49;90812.56;;;15.79;70.43
69909;BME280;57190;47.918;8.112;2022-07-29T01:06:18;90817.97;;;15.65;70.74
69909;BME280;57190;47.918;8.112;2022-07-29T01:08:45;90809.38;;;15.63;70.98
69909;BME280;57190;47.918;8.112;2022-07-29T01:11:14;90814.66;;;15.54;71.48
69909;BME280;57190;47.918;8.112;2022-07-29T01:13:41;90812.66;;;15.46;71.18
69909;BME280;57190;47.918;8.112;2022-07-29T01:16:15;90814.44;;;15.51;71.57
69909;BME280;57190;47.918;8.112;2022-07-29T01:18:47;90807.66;;;15.53;71.40
69909;BME280;57190;47.918;8.112;2022-07-29T01:24:55;90801.69;;;15.43;71.71
69909;BME280;57190;47.918;8.112;2022-07-29T01:29:56;90800.31;;;15.45;71.42
69909;BME280;57190;47.918;8.112;2022-07-29T01:32:27;90807.47;;;15.50;71.38
69909;BME280;57190;47.918;8.112;2022-07-29T01:34:59;90799.53;;;15.59;71.67
69909;BME280;57190;47.918;8.112;2022-07-29T01:37:41;90802.41;;;15.62;71.71
69909;BME280;57190;47.918;8.112;2022-07-29T01:40:14;90795.44;;;15.61;71.32
69909;BME280;57190;47.918;8.112;2022-07-29T01:42:45;90805.28;;;15.52;71.89
69909;BME280;57190;47.918;8.112;2022-07-29T01:45:56;90799.41;;;15.50;72.02
69909;BME280;57190;47.918;8.112;2022-07-29T01:48:06;90795.75;;;15.46;72.06
69909;BME280;57190;47.918;8.112;2022-07-29T01:50:46;90794.84;;;15.36;72.54
69909;BME280;57190;47.918;8.112;2022-07-29T01:53:16;90799.13;;;15.37;72.70
69909;BME280;57190;47.918;8.112;2022-07-29T01:55:48;90799.13;;;15.37;72.87
69909;BME280;57190;47.918;8.112;2022-07-29T01:58:15;90796.94;;;15.39;72.61
69909;BME280;57190;47.918;8.112;2022-07-29T02:00:44;90793.63;;;15.43;72.68
69909;BME280;57190;47.918;8.112;2022-07-29T02:03:12;90800.31;;;15.45;72.62
69909;BME280;57190;47.918;8.112;2022-07-29T02:05:41;90791.84;;;15.52;72.50
69909;BME280;57190;47.918;8.112;2022-07-29T02:08:08;90789.47;;;15.50;72.49
69909;BME280;57190;47.918;8.112;2022-07-29T02:10:38;90788.06;;;15.39;72.87
69909;BME280;57190;47.918;8.112;2022-07-29T02:13:05;90788.38;;;15.37;72.70
69909;BME280;57190;47.918;8.112;2022-07-29T02:15:33;90795.41;;;15.33;72.69
69909;BME280;57190;47.918;8.112;2022-07-29T02:18:13;90790.16;;;15.28;73.06
69909;BME280;57190;47.918;8.112;2022-07-29T02:20:39;90789.38;;;15.28;72.82
69909;BME280;57190;47.918;8.112;2022-07-29T02:23:10;90785.34;;;15.25;72.80
69909;BME280;57190;47.918;8.112;2022-07-29T02:25:37;90794.13;;;15.31;72.84
69909;BME280;57190;47.918;8.112;2022-07-29T02:28:04;90791.13;;;15.32;73.32
69909;BME280;57190;47.918;8.112;2022-07-29T02:30:31;90794.94;;;15.31;73.14
69909;BME280;57190;47.918;8.112;2022-07-29T02:32:58;90798.22;;;15.28;73.35
69909;BME280;57190;47.918;8.112;2022-07-29T02:35:25;90791.53;;;15.25;73.17
69909;BME280;57190;47.918;8.112;2022-07-29T02:37:51;90798.31;;;15.23;73.44
69909;BME280;57190;47.918;8.112;2022-07-29T02:40:38;90789.13;;;15.24;73.39
69909;BME280;57190;47.918;8.112;2022-07-29T02:43:05;90793.34;;;15.30;73.19
69909;BME280;57190;47.918;8.112;2022-07-29T02:45:32;90799.69;;;15.34;73.06
69909;BME280;57190;47.918;8.112;2022-07-29T02:48:00;90793.16;;;15.27;73.35
69909;BME280;57190;47.918;8.112;2022-07-29T02:50:34;90792.94;;;15.23;73.64
69909;BME280;57190;47.918;8.112;2022-07-29T02:55:40;90801.47;;;15.25;73.96
69909;BME280;57190;47.918;8.112;2022-07-29T02:58:33;90795.00;;;15.26;73.47
69909;BME280;57190;47.918;8.112;2022-07-29T03:01:03;90796.72;;;15.22;73.52
69909;BME280;57190;47.918;8.112;2022-07-29T03:03:36;90800.28;;;15.17;73.54
69909;BME280;57190;47.918;8.112;2022-07-29T03:06:03;90798.09;;;15.19;73.54
69909;BME280;57190;47.918;8.112;2022-07-29T03:08:32;90794.09;;;15.17;73.52
69909;BME280;57190;47.918;8.112;2022-07-29T03:10:58;90789.94;;;15.24;73.48
69909;BME280;57190;47.918;8.112;2022-07-29T03:13:25;90788.03;;;15.25;73.35
69909;BME280;57190;47.918;8.112;2022-07-29T03:15:52;90783.56;;;15.20;73.13
69909;BME280;57190;47.918;8.112;2022-07-29T03:18:19;90785.34;;;15.11;73.52
69909;BME280;57190;47.918;8.112;2022-07-29T03:20:44;90782.66;;;15.11;73.51
69909;BME280;57190;47.918;8.112;2022-07-29T03:23:10;90777.28;;;15.11;73.19
69909;BME280;57190;47.918;8.112;2022-07-29T03:25:36;90779.38;;;15.14;73.04
69909;BME280;57190;47.918;8.112;2022-07-29T03:28:01;90776.69;;;15.14;73.01
69909;BME280;57190;47.918;8.112;2022-07-29T03:30:27;90782.06;;;15.14;72.87
69909;BME280;57190;47.918;8.112;2022-07-29T03:32:56;90783.34;;;15.17;73.03
69909;BME280;57190;47.918;8.112;2022-07-29T03:35:21;90788.72;;;15.17;72.68
69909;BME280;57190;47.918;8.112;2022-07-29T03:37:48;90787.75;;;15.13;72.87
69909;BME280;57190;47.918;8.112;2022-07-29T03:40:19;90782.66;;;15.11;72.55
69909;BME280;57190;47.918;8.112;2022-07-29T03:42:48;90782.06;;;15.14;72.32
69909;BME280;57190;47.918;8.112;2022-07-29T03:45:17;90785.97;;;15.22;71.76
69909;BME280;57190;47.918;8.112;2022-07-29T03:47:48;90786.25;;;15.20;72.18
69909;BME280;57190;47.918;8.112;2022-07-29T03:50:16;90786.66;;;15.14;71.95
69909;BME280;57190;47.918;8.112;2022-07-29T03:52:45;90786.47;;;15.10;72.20
69909;BME280;57190;47.918;8.112;2022-07-29T03:55:11;90787.13;;;15.16;71.67
69909;BME280;57190;47.918;8.112;2022-07-29T03:57:37;90783.16;;;15.13;71.89
69909;BME280;57190;47.918;8.112;2022-07-29T04:00:06;90785.94;;;15.08;71.80
69909;BME280;57190;47.918;8.112;2022-07-29T04:02:32;90779.47;;;15.09;71.84
69909;BME280;57190;47.918;8.112;2022-07-29T04:04:58;90778.59;;;15.14;71.33
69909;BME280;57190;47.918;8.112;2022-07-29T04:07:24;90777.97;;;15.17;71.20
69909;BME280;57190;47.918;8.112;2022-07-29T04:09:49;90777.41;;;15.20;70.99
69909;BME280;57190;47.918;8.112;2022-07-29T04:12:15;90782.78;;;15.20;70.79
69909;BME280;57190;47.918;8.112;2022-07-29T04:14:40;90780.59;;;15.22;70.41
69909;BME280;57190;47.918;8.112;2022-07-29T04:17:06;90782.66;;;15.25;70.06
69909;BME280;57190;47.918;8.112;2022-07-29T04:19:32;90784.78;;;15.28;69.93
69909;BME280;57190;47.918;8.112;2022-07-29T04:21:59;90788.25;;;15.29;69.75
69909;BME280;57190;47.918;8.112;2022-07-29T04:24:25;90796.63;;;15.27;69.94
69909;BME280;57190;47.918;8.112;2022-07-29T04:26:51;90794.09;;;15.17;70.31
69909;BME280;57190;47.918;8.112;2022-07-29T04:29:16;90800.25;;;15.03;70.88
69909;BME280;57190;47.918;8.112;2022-07-29T04:31:42;90796.75;;;15.03;70.94
69909;BME280;57190;47.918;8.112;2022-07-29T04:34:08;90800.97;;;15.09;70.38
69909;BME280;57190;47.918;8.112;2022-07-29T04:36:34;90799.78;;;15.15;69.94
69909;BME280;57190;47.918;8.112;2022-07-29T04:38:59;90795.91;;;15.21;69.70
69909;BME280;57190;47.918;8.112;2022-07-29T04:41:26;90795.41;;;15.33;69.05
69909;BME280;57190;47.918;8.112;2022-07-29T04:43:52;90793.66;;;15.56;68.26
69909;BME280;57190;47.918;8.112;2022-07-29T04:46:18;90792.06;;;15.69;68.22
69909;BME280;57190;47.918;8.112;2022-07-29T04:48:45;90793.53;;;15.76;68.28
69909;BME280;57190;47.918;8.112;2022-07-29T04:51:11;90793.66;;;15.84;67.63
69909;BME280;57190;47.918;8.112;2022-07-29T04:53:37;90793.88;;;15.88;68.06
69909;BME280;57190;47.918;8.112;2022-07-29T04:56:03;90795.28;;;15.85;68.73
69909;BME280;57190;47.918;8.112;2022-07-29T04:58:28;90792.06;;;15.83;68.58
69909;BME280;57190;47.918;8.112;2022-07-29T05:00:54;90791.75;;;15.85;68.84
69909;BME280;57190;47.918;8.112;2022-07-29T05:03:19;90801.31;;;15.91;68.58
69909;BME280;57190;47.918;8.112;2022-07-29T05:05:45;90801.72;;;15.98;68.35
69909;BME280;57190;47.918;8.112;2022-07-29T05:08:10;90795.00;;;16.10;67.93
69909;BME280;57190;47.918;8.112;2022-07-29T05:10:36;90798.97;;;16.26;67.39
69909;BME280;57190;47.918;8.112;2022-07-29T05:13:06;90792.41;;;16.55;66.78
69909;BME280;57190;47.918;8.112;2022-07-29T05:15:37;90799.56;;;16.82;66.44
69909;BME280;57190;47.918;8.112;2022-07-29T05:18:03;90799.13;;;17.03;65.45
69909;BME280;57190;47.918;8.112;2022-07-29T05:20:30;90806.81;;;17.19;65.33
69909;BME280;57190;47.918;8.112;2022-07-29T05:22:59;90796.41;;;17.35;64.74
69909;BME280;57190;47.918;8.112;2022-07-29T05:25:26;90790.59;;;17.41;64.90
69909;BME280;57190;47.918;8.112;2022-07-29T05:27:53;90805.91;;;17.32;65.44
69909;BME280;57190;47.918;8.112;2022-07-29T05:30:21;90801.91;;;17.21;65.78
69909;BME280;57190;47.918;8.112;2022-07-29T05:32:47;90803.31;;;17.18;66.21
69909;BME280;57190;47.918;8.112;2022-07-29T05:35:14;90795.03;;;17.15;64.97
69909;BME280;57190;47.918;8.112;2022-07-29T05:37:39;90796.97;;;17.14;63.79
69909;BME280;57190;47.918;8.112;2022-07-29T05:40:06;90797.13;;;17.18;64.46
69909;BME280;57190;47.918;8.112;2022-07-29T05:42:32;90799.34;;;17.16;65.74
69909;BME280;57190;47.918;8.112;2022-07-29T05:44:57;90804.06;;;17.10;66.75
69909;BME280;57190;47.918;8.112;2022-07-29T05:47:24;90807.72;;;17.14;66.31
69909;BME280;57190;47.918;8.112;2022-07-29T05:49:50;90803.06;;;17.28;65.24
69909;BME280;57190;47.918;8.112;2022-07-29T05:52:16;90803.41;;;17.36;64.60
69909;BME280;57190;47.918;8.112;2022-07-29T05:54:42;90809.03;;;17.48;64.23
69909;BME280;57190;47.918;8.112;2022-07-29T05:57:08;90815.25;;;17.57;63.96
69909;BME280;57190;47.918;8.112;2022-07-29T05:59:36;90819.22;;;17.60;63.59
69909;BME280;57190;47.918;8.112;2022-07-29T06:02:03;90820.19;;;17.64;64.22
69909;BME280;57190;47.918;8.112;2022-07-29T06:04:31;90819.41;;;17.64;66.07
69909;BME280;57190;47.918;8.112;2022-07-29T06:06:56;90825.91;;;17.63;66.40
69909;BME280;57190;47.918;8.112;2022-07-29T06:09:22;90821.94;;;17.60;67.42
69909;BME280;57190;47.918;8.112;2022-07-29T06:11:48;90829.19;;;17.51;66.76
69909;BME280;57190;47.918;8.112;2022-07-29T06:14:14;90821.88;;;17.51;67.00
69909;BME280;57190;47.918;8.112;2022-07-29T06:16:40;90831.06;;;17.50;65.34
69909;BME280;57190;47.918;8.112;2022-07-29T06:19:05;90828.25;;;17.55;65.73
69909;BME280;57190;47.918;8.112;2022-07-29T06:21:31;90835.59;;;17.64;65.68
69909;BME280;57190;47.918;8.112;2022-07-29T06:23:56;90830.88;;;17.78;64.47
69909;BME280;57190;47.918;8.112;2022-07-29T06:26:22;90830.00;;;17.91;63.95
69909;BME280;57190;47.918;8.112;2022-07-29T06:28:48;90835.94;;;18.11;63.50
69909;BME280;57190;47.918;8.112;2022-07-29T06:31:13;90839.94;;;18.31;62.88
69909;BME280;57190;47.918;8.112;2022-07-29T06:33:39;90844.44;;;18.45;61.64
69909;BME280;57190;47.918;8.112;2022-07-29T06:36:05;90842.06;;;18.52;61.42
69909;BME280;57190;47.918;8.112;2022-07-29T06:38:32;90844.13;;;18.55;62.52
69909;BME280;57190;47.918;8.112;2022-07-29T06:40:59;90841.09;;;18.48;63.07
69909;BME280;57190;47.918;8.112;2022-07-29T06:46:03;90850.28;;;18.29;66.19
69909;BME280;57190;47.918;8.112;2022-07-29T06:48:30;90846.94;;;18.23;66.73
69909;BME280;57190;47.918;8.112;2022-07-29T06:50:55;90851.34;;;18.19;66.53
69909;BME280;57190;47.918;8.112;2022-07-29T06:53:21;90852.00;;;18.25;66.23
69909;BME280;57190;47.918;8.112;2022-07-29T06:55:46;90848.03;;;18.31;66.22
69909;BME280;57190;47.918;8.112;2022-07-29T06:58:12;90856.16;;;18.31;66.44
69909;BME280;57190;47.918;8.112;2022-07-29T07:00:39;90863.47;;;18.31;65.67
69909;BME280;57190;47.918;8.112;2022-07-29T07:03:05;90864.88;;;18.28;65.35
69909;BME280;57190;47.918;8.112;2022-07-29T07:05:31;90854.09;;;18.37;65.27
69909;BME280;57190;47.918;8.112;2022-07-29T07:07:56;90857.44;;;18.51;64.74
69909;BME280;57190;47.918;8.112;2022-07-29T07:10:22;90856.53;;;18.74;63.84
69909;BME280;57190;47.918;8.112;2022-07-29T07:12:47;90864.53;;;18.96;63.05
69909;BME280;57190;47.918;8.112;2022-07-29T07:15:13;90862.63;;;19.14;62.09
69909;BME280;57190;47.918;8.112;2022-07-29T07:17:38;90868.16;;;19.27;59.36
69909;BME280;57190;47.918;8.112;2022-07-29T07:20:05;90873.38;;;19.41;58.25
69909;BME280;57190;47.918;8.112;2022-07-29T07:22:31;90870.69;;;19.50;56.78
69909;BME280;57190;47.918;8.112;2022-07-29T07:24:57;90876.41;;;19.48;56.48
69909;BME280;57190;47.918;8.112;2022-07-29T07:27:22;90871.00;;;19.48;56.40
69909;BME280;57190;47.918;8.112;2022-07-29T07:29:48;90872.28;;;19.42;56.49
69909;BME280;57190;47.918;8.112;2022-07-29T07:32:14;90884.53;;;19.39;55.75
69909;BME280;57190;47.918;8.112;2022-07-29T07:34:42;90884.38;;;19.36;56.45
69909;BME280;57190;47.918;8.112;2022-07-29T07:37:08;90882.94;;;19.38;56.72
69909;BME280;57190;47.918;8.112;2022-07-29T07:39:34;90881.97;;;19.43;56.84
69909;BME280;57190;47.918;8.112;2022-07-29T07:41:59;90894.84;;;19.55;57.05
69909;BME280;57190;47.918;8.112;2022-07-29T07:44:25;90882.88;;;19.64;57.40
69909;BME280;57190;47.918;8.112;2022-07-29T07:46:50;90893.22;;;19.71;57.34
69909;BME280;57190;47.918;8.112;2022-07-29T07:49:16;90890.66;;;19.75;56.92
69909;BME280;57190;47.918;8.112;2022-07-29T07:51:41;90895.78;;;19.76;57.99
69909;BME280;57190;47.918;8.112;2022-07-29T07:54:07;90900.22;;;19.72;57.61
69909;BME280;57190;47.918;8.112;2022-07-29T07:56:32;90906.75;;;19.71;57.47
69909;BME280;57190;47.918;8.112;2022-07-29T07:58:58;90903.56;;;19.69;57.25
69909;BME280;57190;47.918;8.112;2022-07-29T08:01:23;90904.38;;;19.70;57.12
69909;BME280;57190;47.918;8.112;2022-07-29T08:03:49;90903.72;;;19.73;56.44
69909;BME280;57190;47.918;8.112;2022-07-29T08:06:15;90903.91;;;19.76;56.36
69909;BME280;57190;47.918;8.112;2022-07-29T08:08:41;90911.34;;;19.79;56.39
69909;BME280;57190;47.918;8.112;2022-07-29T08:11:07;90909.13;;;19.82;56.22
69909;BME280;57190;47.918;8.112;2022-07-29T08:13:32;90908.00;;;19.83;56.83
69909;BME280;57190;47.918;8.112;2022-07-29T08:15:59;90908.31;;;19.81;56.63
69909;BME280;57190;47.918;8.112;2022-07-29T08:18:27;90904.97;;;19.84;55.93
69909;BME280;57190;47.918;8.112;2022-07-29T08:20:54;90898.31;;;19.82;55.74
69909;BME280;57190;47.918;8.112;2022-07-29T08:23:20;90899.59;;;19.75;55.58
69909;BME280;57190;47.918;8.112;2022-07-29T08:25:45;90895.25;;;19.83;55.95
69909;BME280;57190;47.918;8.112;2022-07-29T08:28:11;90895.00;;;19.85;55.99
69909;BME280;57190;47.918;8.112;2022-07-29T08:30:36;90901.19;;;19.85;55.59
69909;BME280;57190;47.918;8.112;2022-07-29T08:33:02;90903.72;;;19.90;55.12
69909;BME280;57190;47.918;8.112;2022-07-29T08:35:28;90903.56;;;19.87;55.02
69909;BME280;57190;47.918;8.112;2022-07-29T08:37:54;90905.78;;;19.93;54.19
69909;BME280;57190;47.918;8.112;2022-07-29T08:40:20;90903.69;;;19.99;54.61
69909;BME280;57190;47.918;8.112;2022-07-29T08:42:46;90908.78;;;20.01;54.21
69909;BME280;57190;47.918;8.112;2022-07-29T08:45:12;90906.25;;;19.95;53.65
69909;BME280;57190;47.918;8.112;2022-07-29T08:47:40;90911.53;;;19.92;53.51
69909;BME280;57190;47.918;8.112;2022-07-29T08:50:08;90914.53;;;19.90;53.43
69909;BME280;57190;47.918;8.112;2022-07-29T08:52:37;90913.75;;;19.90;53.83
69909;BME280;57190;47.918;8.112;2022-07-29T08:55:04;90912.50;;;19.87;54.24
69909;BME280;57190;47.918;8.112;2022-07-29T08:57:30;90912.31;;;19.84;54.82
69909;BME280;57190;47.918;8.112;2022-07-29T09:00:00;90915.66;;;19.80;54.65
69909;BME280;57190;47.918;8.112;2022-07-29T09:02:29;90913.91;;;19.76;55.19
69909;BME280;57190;47.918;8.112;2022-07-29T09:04:59;90916.75;;;19.79;54.15
69909;BME280;57190;47.918;8.112;2022-07-29T09:07:25;90908.19;;;19.86;54.69
69909;BME280;57190;47.918;8.112;2022-07-29T09:09:51;90916.13;;;19.91;54.46
69909;BME280;57190;47.918;8.112;2022-07-29T09:12:16;90918.97;;;19.95;55.01
69909;BME280;57190;47.918;8.112;2022-07-29T09:14:43;90914.69;;;19.94;54.34
69909;BME280;57190;47.918;8.112;2022-07-29T09:17:08;90914.38;;;19.87;54.34
69909;BME280;57190;47.918;8.112;2022-07-29T09:19:36;90923.63;;;19.86;53.82
69909;BME280;57190;47.918;8.112;2022-07-29T09:22:06;90927.91;;;19.87;54.15
69909;BME280;57190;47.918;8.112;2022-07-29T09:24:41;90919.94;;;19.90;55.56
69909;BME280;57190;47.918;8.112;2022-07-29T09:27:26;90915.16;;;19.96;55.81
69909;BME280;57190;47.918;8.112;2022-07-29T09:30:07;90917.81;;;20.14;55.61
69909;BME280;57190;47.918;8.112;2022-07-29T09:32:54;90920.47;;;20.31;53.38
69909;BME280;57190;47.918;8.112;2022-07-29T09:35:23;90919.75;;;20.52;53.87
69909;BME280;57190;47.918;8.112;2022-07-29T09:37:49;90914.53;;;20.68;52.90
69909;BME280;57190;47.918;8.112;2022-07-29T09:40:17;90910.31;;;20.88;52.62
69909;BME280;57190;47.918;8.112;2022-07-29T09:42:43;90914.03;;;21.04;52.04
69909;BME280;57190;47.918;8.112;2022-07-29T09:45:10;90908.47;;;21.22;52.14
69909;BME280;57190;47.918;8.112;2022-07-29T09:47:44;90909.16;;;21.40;49.72
69909;BME280;57190;47.918;8.112;2022-07-29T09:50:11;90895.81;;;21.69;49.30
69909;BME280;57190;47.918;8.112;2022-07-29T09:53:06;90909.13;;;21.95;48.86
69909;BME280;57190;47.918;8.112;2022-07-29T09:55:31;90905.63;;;21.94;49.46
69909;BME280;57190;47.918;8.112;2022-07-29T09:58:17;90911.81;;;21.82;47.98
69909;BME280;57190;47.918;8.112;2022-07-29T10:00:43;90911.31;;;21.68;48.19
69909;BME280;57190;47.918;8.112;2022-07-29T10:03:09;90907.00;;;21.67;48.78
69909;BME280;57190;47.918;8.112;2022-07-29T10:05:34;90908.72;;;21.72;48.99
69909;BME280;57190;47.918;8.112;2022-07-29T10:08:00;90909.97;;;21.74;48.94
69909;BME280;57190;47.918;8.112;2022-07-29T10:10:32;90911.72;;;21.91;48.94
69909;BME280;57190;47.918;8.112;2022-07-29T10:13:06;90905.25;;;21.83;49.40
69909;BME280;57190;47.918;8.112;2022-07-29T10:15:36;90913.81;;;21.73;49.64
69909;BME280;57190;47.918;8.112;2022-07-29T10:18:04;90907.41;;;21.78;49.94
69909;BME280;57190;47.918;8.112;2022-07-29T10:20:31;90904.41;;;21.71;49.48
69909;BME280;57190;47.918;8.112;2022-07-29T10:22:57;90900.78;;;21.66;48.97
69909;BME280;57190;47.918;8.112;2022-07-29T10:25:23;90899.91;;;21.75;48.66
69909;BME280;57190;47.918;8.112;2022-07-29T10:27:50;90897.53;;;21.73;48.77
69909;BME280;57190;47.918;8.112;2022-07-29T10:30:21;90896.19;;;21.79;48.84
69909;BME280;57190;47.918;8.112;2022-07-29T10:43:48;90908.88;;;21.88;48.89
69909;BME280;57190;47.918;8.112;2022-07-29T10:46:14;90910.19;;;22.03;49.14
69909;BME280;57190;47.918;8.112;2022-07-29T10:49:15;90915.63;;;22.15;49.50
69909;BME280;57190;47.918;8.112;2022-07-29T10:52:04;90907.75;;;21.89;49.66
69909;BME280;57190;47.918;8.112;2022-07-29T10:59:40;90916.50;;;22.07;50.37
69909;BME280;57190;47.918;8.112;2022-07-29T11:04:59;90915.66;;;22.27;49.71
69909;BME280;57190;47.918;8.112;2022-07-29T11:07:26;90919.94;;;22.16;49.44
69909;BME280;57190;47.918;8.112;2022-07-29T11:15:05;90923.84;;;22.40;50.57
69909;BME280;57190;47.918;8.112;2022-07-29T11:28:53;90916.72;;;22.72;48.51
69909;BME280;57190;47.918;8.112;2022-07-29T11:31:43;90916.94;;;22.67;49.49
69909;BME280;57190;47.918;8.112;2022-07-29T11:34:26;90922.94;;;22.48;50.12
69909;BME280;57190;47.918;8.112;2022-07-29T11:39:32;90927.63;;;22.14;50.15
69909;BME280;57190;47.918;8.112;2022-07-29T11:45:00;90923.75;;;22.03;51.33
69909;BME280;57190;47.918;8.112;2022-07-29T11:47:28;90931.44;;;22.01;51.43
69909;BME280;57190;47.918;8.112;2022-07-29T11:49:56;90929.84;;;21.99;51.55
69909;BME280;57190;47.918;8.112;2022-07-29T11:52:23;90928.91;;;21.95;51.50
69909;BME280;57190;47.918;8.112;2022-07-29T11:54:49;90932.78;;;21.94;51.90
69909;BME280;57190;47.918;8.112;2022-07-29T11:57:19;90931.97;;;21.94;52.36
69909;BME280;57190;47.918;8.112;2022-07-29T11:59:46;90932.25;;;21.80;52.05
69909;BME280;57190;47.918;8.112;2022-07-29T12:02:13;90937.78;;;21.71;51.76
69909;BME280;57190;47.918;8.112;2022-07-29T12:04:49;90935.06;;;21.71;52.16
69909;BME280;57190;47.918;8.112;2022-07-29T12:07:15;90934.66;;;21.81;51.52
69909;BME280;57190;47.918;8.112;2022-07-29T12:09:50;90938.03;;;21.78;51.38
69909;BME280;57190;47.918;8.112;2022-07-29T12:12:16;90949.38;;;21.80;51.52
69909;BME280;57190;47.918;8.112;2022-07-29T12:14:42;90940.16;;;21.73;51.12
69909;BME280;57190;47.918;8.112;2022-07-29T12:19:54;90946.34;;;21.61;50.33
69909;BME280;57190;47.918;8.112;2022-07-29T12:22:27;90945.72;;;21.55;50.39
69909;BME280;57190;47.918;8.112;2022-07-29T12:24:54;90943.59;;;21.40;49.94
69909;BME280;57190;47.918;8.112;2022-07-29T12:27:20;90955.31;;;21.31;50.28
69909;BME280;57190;47.918;8.112;2022-07-29T12:29:56;90957.50;;;21.17;52.78
69909;BME280;57190;47.918;8.112;2022-07-29T12:32:22;90952.97;;;21.00;52.88
69909;BME280;57190;47.918;8.112;2022-07-29T12:34:49;90953.38;;;20.89;53.90
69909;BME280;57190;47.918;8.112;2022-07-29T12:37:14;90953.59;;;20.67;54.71
69909;BME280;57190;47.918;8.112;2022-07-29T12:39:40;90958.25;;;20.66;56.06
69909;BME280;57190;47.918;8.112;2022-07-29T12:42:13;90963.00;;;20.69;56.91
69909;BME280;57190;47.918;8.112;2022-07-29T12:44:49;90964.03;;;20.56;56.58
69909;BME280;57190;47.918;8.112;2022-07-29T12:47:16;90959.06;;;20.58;57.92
69909;BME280;57190;47.918;8.112;2022-07-29T12:49:44;90966.22;;;20.63;57.69
69909;BME280;57190;47.918;8.112;2022-07-29T12:52:31;90965.59;;;20.57;57.71
69909;BME280;57190;47.918;8.112;2022-07-29T12:54:57;90957.16;;;20.58;58.21
69909;BME280;57190;47.918;8.112;2022-07-29T12:57:24;90961.81;;;20.49;57.33
69909;BME280;57190;47.918;8.112;2022-07-29T13:00:08;90951.31;;;20.48;58.11
69909;BME280;57190;47.918;8.112;2022-07-29T13:02:36;90963.16;;;20.34;58.34
69909;BME280;57190;47.918;8.112;2022-07-29T13:05:03;90955.81;;;20.35;58.94
69909;BME280;57190;47.918;8.112;2022-07-29T13:07:31;90961.72;;;20.28;59.26
69909;BME280;57190;47.918;8.112;2022-07-29T13:10:20;90951.72;;;20.20;59.62
69909;BME280;57190;47.918;8.112;2022-07-29T13:15:31;90958.94;;;19.98;60.58
69909;BME280;57190;47.918;8.112;2022-07-29T13:17:56;90956.88;;;19.95;61.07
69909;BME280;57190;47.918;8.112;2022-07-29T13:20:28;90946.38;;;19.93;61.51
69909;BME280;57190;47.918;8.112;2022-07-29T13:22:58;90936.81;;;19.96;61.41
69909;BME280;57190;47.918;8.112;2022-07-29T13:25:29;90933.66;;;19.85;60.99
69909;BME280;57190;47.918;8.112;2022-07-29T13:27:58;90939.06;;;19.85;61.53
69909;BME280;57190;47.918;8.112;2022-07-29T13:30:24;90943.53;;;19.90;61.54
69909;BME280;57190;47.918;8.112;2022-07-29T13:32:51;90938.13;;;19.90;60.50
69909;BME280;57190;47.918;8.112;2022-07-29T13:35:17;90943.34;;;19.95;59.81
69909;BME280;57190;47.918;8.112;2022-07-29T13:37:43;90933.16;;;20.01;60.45
69909;BME280;57190;47.918;8.112;2022-07-29T13:40:10;90935.56;;;19.93;58.80
69909;BME280;57190;47.918;8.112;2022-07-29T13:42:36;90933.63;;;19.94;58.90
69909;BME280;57190;47.918;8.112;2022-07-29T13:45:03;90939.22;;;19.98;58.88
69909;BME280;57190;47.918;8.112;2022-07-29T13:47:29;90932.22;;;19.97;58.36
69909;BME280;57190;47.918;8.112;2022-07-29T13:49:55;90935.69;;;20.06;58.74
69909;BME280;57190;47.918;8.112;2022-07-29T13:52:21;90938.69;;;20.13;58.17
69909;BME280;57190;47.918;8.112;2022-07-29T13:54:46;90943.75;;;20.23;57.94
69909;BME280;57190;47.918;8.112;2022-07-29T13:57:13;90937.03;;;20.30;57.20
69909;BME280;57190;47.918;8.112;2022-07-29T13:59:42;90939.56;;;20.35;56.91
69909;BME280;57190;47.918;8.112;2022-07-29T14:02:09;90934.63;;;20.37;54.82